Time;durP1;ratioP1;P1;durP2;ratioP2;P2;SDS_P1;SDS_P2;PMS_P1;PMS_P2;Temp;Humidity;BMP_temperature;BMP_pressure;BME280_temperature;BME280_humidity;BME280_pressure;Samples;Min_cycle;Max_cycle;Signal;HPM_P1;HPM_P2
2022/01/17 00:01:04;;;;;;;5.97;4.20;;;;;;;;;;5050078;28;20155;-78
2022/01/17 00:03:29;;;;;;;7.03;4.38;;;;;;;;;;5013718;28;20560;-78
2022/01/17 00:05:55;;;;;;;5.75;4.63;;;;;;;;;;4997668;28;20046;-79
2022/01/17 00:08:20;;;;;;;6.10;4.22;;;;;;;;;;4997366;28;20403;-78
2022/01/17 00:10:46;;;;;;;4.95;4.03;;;;;;;;;;5033729;28;20033;-79
2022/01/17 00:13:21;;;;;;;7.22;4.75;;;;;;;;;;5016567;28;20484;-78
2022/01/17 00:15:51;;;;;;;6.72;4.63;;;;;;;;;;5003496;28;20463;-78
2022/01/17 00:20:45;;;;;;;6.65;4.47;;;;;;;;;;5017402;28;20044;-78
2022/01/17 00:23:11;;;;;;;5.85;4.18;;;;;;;;;;5001100;28;20038;-78
2022/01/17 00:25:37;;;;;;;5.57;3.90;;;;;;;;;;5013805;28;20091;-78
2022/01/17 00:28:02;;;;;;;6.95;4.75;;;;;;;;;;5013030;28;20029;-78
2022/01/17 00:30:29;;;;;;;6.50;4.53;;;;;;;;;;5016526;28;20434;-78
2022/01/17 00:32:54;;;;;;;5.63;4.03;;;;;;;;;;5033017;28;20032;-78
2022/01/17 00:35:20;;;;;;;6.70;4.60;;;;;;;;;;5018365;28;20037;-78
2022/01/17 00:37:46;;;;;;;6.07;4.57;;;;;;;;;;4996941;28;20501;-78
2022/01/17 00:40:12;;;;;;;7.40;4.72;;;;;;;;;;4997187;28;20098;-78
2022/01/17 00:42:37;;;;;;;6.13;4.00;;;;;;;;;;4996543;28;20440;-78
2022/01/17 00:45:06;;;;;;;6.63;4.82;;;;;;;;;;5014473;28;20121;-78
2022/01/17 00:47:32;;;;;;;6.38;4.18;;;;;;;;;;5016453;28;20037;-78
2022/01/17 00:49:57;;;;;;;5.82;4.47;;;;;;;;;;5016658;28;20037;-78
2022/01/17 00:52:23;;;;;;;5.75;4.05;;;;;;;;;;5031965;28;20108;-78
2022/01/17 00:54:48;;;;;;;6.18;4.63;;;;;;;;;;5016347;28;20049;-78
2022/01/17 00:57:14;;;;;;;6.07;4.55;;;;;;;;;;5032185;28;20029;-78
2022/01/17 00:59:39;;;;;;;4.75;3.95;;;;;;;;;;5016128;28;20057;-78
2022/01/17 01:02:05;;;;;;;5.70;4.25;;;;;;;;;;5015683;28;20037;-78
2022/01/17 01:04:30;;;;;;;5.47;4.35;;;;;;;;;;4999811;28;20037;-78
2022/01/17 01:06:56;;;;;;;5.47;4.30;;;;;;;;;;5015838;28;20064;-78
2022/01/17 01:09:21;;;;;;;6.45;4.80;;;;;;;;;;5032406;28;20095;-78
2022/01/17 01:11:47;;;;;;;5.47;3.83;;;;;;;;;;5015717;28;20057;-78
2022/01/17 01:14:12;;;;;;;5.18;4.07;;;;;;;;;;5016237;28;20033;-78
2022/01/17 01:16:38;;;;;;;5.25;3.85;;;;;;;;;;5032110;28;20033;-78
2022/01/17 01:29:47;;;;;;;6.38;4.97;;;;;;;;;;5032085;28;20041;-78
2022/01/17 01:32:14;;;;;;;5.80;4.22;;;;;;;;;;5031923;28;20025;-78
2022/01/17 01:34:45;;;;;;;6.10;4.00;;;;;;;;;;5012651;28;20072;-78
2022/01/17 01:37:11;;;;;;;5.43;3.85;;;;;;;;;;5012532;28;20034;-78
2022/01/17 01:39:38;;;;;;;6.43;4.28;;;;;;;;;;4995864;28;20025;-78
2022/01/17 01:42:04;;;;;;;6.22;4.20;;;;;;;;;;4995803;28;20037;-78
2022/01/17 01:44:30;;;;;;;6.78;4.55;;;;;;;;;;4979876;28;20064;-78
2022/01/17 01:46:56;;;;;;;7.55;4.28;;;;;;;;;;5011972;28;20120;-78
2022/01/17 01:49:21;;;;;;;6.60;4.38;;;;;;;;;;5011998;28;20046;-78
2022/01/17 01:51:47;;;;;;;5.90;4.15;;;;;;;;;;4995900;28;20106;-78
2022/01/17 01:54:13;;;;;;;6.45;4.80;;;;;;;;;;5028603;28;20399;-78
2022/01/17 01:56:40;;;;;;;6.75;4.20;;;;;;;;;;5030589;28;20032;-78
2022/01/17 01:59:06;;;;;;;5.72;4.15;;;;;;;;;;5047970;28;20077;-78
2022/01/17 02:01:31;;;;;;;6.18;4.15;;;;;;;;;;5048174;28;20115;-78
2022/01/17 02:03:57;;;;;;;6.00;4.32;;;;;;;;;;5048162;28;20072;-78
2022/01/17 02:06:23;;;;;;;5.50;4.30;;;;;;;;;;5015071;28;20040;-77
2022/01/17 02:08:48;;;;;;;5.18;3.97;;;;;;;;;;4998540;28;20033;-78
2022/01/17 02:11:13;;;;;;;5.95;4.35;;;;;;;;;;5014571;28;20442;-78
2022/01/17 02:13:39;;;;;;;4.70;3.70;;;;;;;;;;5030740;28;20484;-78
2022/01/17 02:16:06;;;;;;;5.95;4.25;;;;;;;;;;5031360;28;20064;-78
2022/01/17 02:18:31;;;;;;;6.20;4.57;;;;;;;;;;5031380;28;20048;-78
2022/01/17 02:23:48;;;;;;;6.05;4.47;;;;;;;;;;5044434;28;20033;-78
2022/01/17 02:26:14;;;;;;;6.78;4.80;;;;;;;;;;5030664;28;20029;-78
2022/01/17 02:28:47;;;;;;;5.43;4.07;;;;;;;;;;5014470;28;20025;-78
2022/01/17 02:31:12;;;;;;;7.88;4.75;;;;;;;;;;5014877;28;20029;-78
2022/01/17 02:33:38;;;;;;;5.93;4.10;;;;;;;;;;5030706;28;20029;-78
2022/01/17 02:36:03;;;;;;;5.90;4.63;;;;;;;;;;4998437;28;20035;-78
2022/01/17 02:38:29;;;;;;;6.20;4.40;;;;;;;;;;5013864;28;20065;-78
2022/01/17 02:40:55;;;;;;;6.35;4.60;;;;;;;;;;5030947;28;20167;-78
2022/01/17 02:43:21;;;;;;;5.95;4.57;;;;;;;;;;5014454;28;20095;-78
2022/01/17 02:48:19;;;;;;;6.05;4.63;;;;;;;;;;5030283;28;20059;-78
2022/01/17 02:50:44;;;;;;;6.20;4.35;;;;;;;;;;5010756;28;20164;-78
2022/01/17 02:53:10;;;;;;;5.78;4.38;;;;;;;;;;4977852;28;20040;-78
2022/01/17 02:55:36;;;;;;;6.72;4.50;;;;;;;;;;4995032;28;20042;-78
2022/01/17 02:58:01;;;;;;;4.97;4.00;;;;;;;;;;4994497;28;20034;-78
2022/01/17 03:00:27;;;;;;;5.25;4.05;;;;;;;;;;4996606;28;20037;-78
2022/01/17 03:02:52;;;;;;;6.43;4.20;;;;;;;;;;5020577;28;20038;-78
2022/01/17 03:05:18;;;;;;;5.57;4.47;;;;;;;;;;4994800;28;20030;-78
2022/01/17 03:07:44;;;;;;;5.60;4.18;;;;;;;;;;5045119;28;20034;-78
2022/01/17 03:10:19;;;;;;;6.40;4.50;;;;;;;;;;5030221;28;20547;-78
2022/01/17 03:12:45;;;;;;;7.10;4.70;;;;;;;;;;5046017;28;20034;-79
2022/01/17 03:15:12;;;;;;;6.75;5.30;;;;;;;;;;5013830;28;20037;-78
2022/01/17 03:17:38;;;;;;;5.43;3.97;;;;;;;;;;5030663;28;20041;-78
2022/01/17 03:20:04;;;;;;;5.78;4.50;;;;;;;;;;5026371;28;20034;-79
2022/01/17 03:22:29;;;;;;;6.68;5.10;;;;;;;;;;4993861;28;20088;-79
2022/01/17 03:24:55;;;;;;;6.00;4.43;;;;;;;;;;4995806;28;20042;-78
2022/01/17 03:27:20;;;;;;;5.75;4.50;;;;;;;;;;5015412;28;20087;-78
2022/01/17 03:29:46;;;;;;;6.20;4.50;;;;;;;;;;5001635;28;20392;-78
2022/01/17 03:32:11;;;;;;;6.18;4.43;;;;;;;;;;5001362;28;20041;-79
2022/01/17 03:34:39;;;;;;;6.50;4.35;;;;;;;;;;4984914;28;20099;-78
2022/01/17 03:37:05;;;;;;;6.07;4.50;;;;;;;;;;5017813;28;20033;-79
2022/01/17 03:39:30;;;;;;;7.13;4.57;;;;;;;;;;5017965;28;20043;-78
2022/01/17 03:41:56;;;;;;;5.78;4.55;;;;;;;;;;5000872;28;20487;-79
2022/01/17 03:44:21;;;;;;;5.95;4.45;;;;;;;;;;5017637;28;20033;-79
2022/01/17 03:46:46;;;;;;;6.78;4.72;;;;;;;;;;5033472;28;20068;-78
2022/01/17 03:49:12;;;;;;;6.93;4.38;;;;;;;;;;5033557;28;20064;-79
2022/01/17 03:51:38;;;;;;;6.47;4.80;;;;;;;;;;5000725;28;20586;-78
2022/01/17 03:54:04;;;;;;;6.63;4.43;;;;;;;;;;5001149;28;20026;-79
2022/01/17 03:56:29;;;;;;;6.60;4.63;;;;;;;;;;5001156;28;20060;-79
2022/01/17 03:58:55;;;;;;;5.53;4.45;;;;;;;;;;5017230;28;20041;-78
2022/01/17 04:01:20;;;;;;;6.03;4.82;;;;;;;;;;5000706;28;20080;-78
2022/01/17 04:03:46;;;;;;;6.40;4.90;;;;;;;;;;5033628;28;20033;-78
2022/01/17 04:06:14;;;;;;;6.10;4.50;;;;;;;;;;5000923;28;20034;-78
2022/01/17 04:08:40;;;;;;;7.03;5.35;;;;;;;;;;5001488;28;20057;-78
2022/01/17 04:11:06;;;;;;;6.07;3.92;;;;;;;;;;5016990;28;20163;-79
2022/01/17 04:13:33;;;;;;;6.65;4.60;;;;;;;;;;5017139;28;20499;-78
2022/01/17 04:15:58;;;;;;;5.70;4.55;;;;;;;;;;5028126;28;20037;-78
2022/01/17 04:18:24;;;;;;;7.03;5.30;;;;;;;;;;4984296;28;20053;-78
2022/01/17 04:20:50;;;;;;;5.95;4.35;;;;;;;;;;5000529;28;20049;-78
2022/01/17 04:23:15;;;;;;;5.68;4.25;;;;;;;;;;5049954;28;20430;-78
2022/01/17 04:25:42;;;;;;;5.60;4.35;;;;;;;;;;5014968;28;20399;-78
2022/01/17 04:28:07;;;;;;;5.68;4.35;;;;;;;;;;5013238;28;20029;-78
2022/01/17 04:30:33;;;;;;;5.60;4.13;;;;;;;;;;5013671;28;20476;-78
2022/01/17 04:32:58;;;;;;;5.53;4.65;;;;;;;;;;5029775;28;20112;-78
2022/01/17 04:35:25;;;;;;;5.88;4.93;;;;;;;;;;5044874;28;20037;-78
2022/01/17 04:37:59;;;;;;;6.28;4.85;;;;;;;;;;5032963;28;20025;-78
2022/01/17 04:40:24;;;;;;;6.75;5.05;;;;;;;;;;5017913;28;20096;-78
2022/01/17 04:42:53;;;;;;;6.22;4.38;;;;;;;;;;5032069;28;20037;-79
2022/01/17 04:45:20;;;;;;;6.97;4.70;;;;;;;;;;5033474;28;20151;-78
2022/01/17 04:47:48;;;;;;;5.82;4.65;;;;;;;;;;5049217;28;20072;-78
2022/01/17 04:50:23;;;;;;;7.30;4.93;;;;;;;;;;5049314;28;20042;-78
2022/01/17 04:52:48;;;;;;;6.95;4.88;;;;;;;;;;5048359;28;20033;-78
2022/01/17 04:55:14;;;;;;;7.70;5.30;;;;;;;;;;5032893;28;20130;-78
2022/01/17 04:57:41;;;;;;;7.22;5.25;;;;;;;;;;5032457;28;20044;-78
2022/01/17 05:00:07;;;;;;;7.57;5.68;;;;;;;;;;5032789;28;20037;-78
2022/01/17 05:02:32;;;;;;;6.40;4.90;;;;;;;;;;5028658;28;20488;-78
2022/01/17 05:04:59;;;;;;;6.70;5.18;;;;;;;;;;5003835;28;20044;-78
2022/01/17 05:07:24;;;;;;;7.90;5.18;;;;;;;;;;5015785;28;20119;-78
2022/01/17 05:09:49;;;;;;;6.40;4.85;;;;;;;;;;5012248;28;20564;-78
2022/01/17 05:12:15;;;;;;;8.95;5.20;;;;;;;;;;4979906;28;20448;-78
2022/01/17 05:14:43;;;;;;;6.70;5.07;;;;;;;;;;4980135;28;20038;-78
2022/01/17 05:19:58;;;;;;;7.95;5.40;;;;;;;;;;5046432;28;20160;-78
2022/01/17 05:22:25;;;;;;;6.90;5.60;;;;;;;;;;5032375;28;20483;-78
2022/01/17 05:24:50;;;;;;;6.80;4.70;;;;;;;;;;5048332;28;20052;-78
2022/01/17 05:27:16;;;;;;;6.78;5.20;;;;;;;;;;5031688;28;20029;-78
2022/01/17 05:29:41;;;;;;;6.90;5.15;;;;;;;;;;4999543;28;20044;-78
2022/01/17 05:32:07;;;;;;;7.22;5.57;;;;;;;;;;5015256;28;20029;-78
2022/01/17 05:34:40;;;;;;;7.03;5.50;;;;;;;;;;5032198;28;20048;-78
2022/01/17 05:37:06;;;;;;;6.32;4.78;;;;;;;;;;5016748;28;20503;-78
2022/01/17 05:39:32;;;;;;;6.97;5.78;;;;;;;;;;5015558;28;20037;-78
2022/01/17 05:41:57;;;;;;;5.90;5.05;;;;;;;;;;5048312;28;20541;-78
2022/01/17 05:44:23;;;;;;;5.95;4.82;;;;;;;;;;5016688;28;20045;-78
2022/01/17 05:46:48;;;;;;;7.78;5.55;;;;;;;;;;5011712;28;20030;-78
2022/01/17 05:49:14;;;;;;;7.47;5.65;;;;;;;;;;5027434;28;20049;-78
2022/01/17 05:51:40;;;;;;;8.02;6.07;;;;;;;;;;5044514;28;20041;-78
2022/01/17 05:54:05;;;;;;;7.68;5.88;;;;;;;;;;5048577;28;20094;-78
2022/01/17 05:56:31;;;;;;;8.75;6.30;;;;;;;;;;5030640;28;20037;-78
2022/01/17 05:58:56;;;;;;;7.00;5.82;;;;;;;;;;5014992;28;20445;-78
2022/01/17 06:01:22;;;;;;;6.32;5.07;;;;;;;;;;5048248;28;20073;-78
2022/01/17 06:03:47;;;;;;;7.28;5.80;;;;;;;;;;5027805;28;20376;-77
2022/01/17 06:06:13;;;;;;;7.65;5.38;;;;;;;;;;4979532;28;20030;-78
2022/01/17 06:08:38;;;;;;;8.45;5.93;;;;;;;;;;4994801;28;20029;-78
2022/01/17 06:11:04;;;;;;;8.00;6.07;;;;;;;;;;4994440;28;20684;-78
2022/01/17 06:13:30;;;;;;;6.60;5.70;;;;;;;;;;5028398;28;20105;-79
2022/01/17 06:15:56;;;;;;;8.05;6.00;;;;;;;;;;5029013;28;20454;-78
2022/01/17 06:18:21;;;;;;;7.20;5.38;;;;;;;;;;5010944;28;20026;-79
2022/01/17 06:20:47;;;;;;;8.98;5.82;;;;;;;;;;5030973;28;20095;-79
2022/01/17 06:23:12;;;;;;;8.07;6.32;;;;;;;;;;5031033;28;20471;-78
2022/01/17 06:25:38;;;;;;;12.32;6.70;;;;;;;;;;5030773;28;20036;-79
2022/01/17 06:28:03;;;;;;;12.45;6.78;;;;;;;;;;5030998;28;20025;-78
2022/01/17 06:30:29;;;;;;;8.43;5.82;;;;;;;;;;5030861;28;20122;-78
2022/01/17 06:32:54;;;;;;;9.30;6.50;;;;;;;;;;5014316;28;20388;-78
2022/01/17 06:35:20;;;;;;;10.23;6.57;;;;;;;;;;5010831;28;20123;-77
2022/01/17 06:37:45;;;;;;;10.70;6.50;;;;;;;;;;5002774;28;20041;-77
2022/01/17 06:40:12;;;;;;;16.13;7.32;;;;;;;;;;5030824;28;20033;-77
2022/01/17 06:42:37;;;;;;;11.93;7.13;;;;;;;;;;5014805;28;20156;-77
2022/01/17 06:45:04;;;;;;;12.77;6.53;;;;;;;;;;5030743;28;20120;-77
2022/01/17 06:47:36;;;;;;;18.73;9.15;;;;;;;;;;5030238;28;20506;-77
2022/01/17 06:50:04;;;;;;;59.77;48.10;;;;;;;;;;5030740;28;20100;-77
2022/01/17 06:52:30;;;;;;;42.33;33.65;;;;;;;;;;4981672;28;20363;-77
2022/01/17 06:54:56;;;;;;;40.70;33.08;;;;;;;;;;5013768;28;20041;-77
2022/01/17 06:57:23;;;;;;;37.28;28.20;;;;;;;;;;5030464;28;20495;-77
2022/01/17 06:59:49;;;;;;;34.78;27.17;;;;;;;;;;5013629;28;20483;-77
2022/01/17 07:02:14;;;;;;;37.10;26.27;;;;;;;;;;5046520;28;20513;-77
2022/01/17 07:04:40;;;;;;;36.30;26.92;;;;;;;;;;4998087;28;20037;-77
2022/01/17 07:07:05;;;;;;;33.13;25.58;;;;;;;;;;4997516;28;20120;-77
2022/01/17 07:09:31;;;;;;;32.55;26.25;;;;;;;;;;4997321;28;20395;-77
2022/01/17 07:11:59;;;;;;;32.60;25.85;;;;;;;;;;5001676;28;20515;-77
2022/01/17 07:14:27;;;;;;;36.33;25.77;;;;;;;;;;4997984;28;20456;-76
2022/01/17 07:16:52;;;;;;;30.60;24.45;;;;;;;;;;4997136;28;20472;-77
2022/01/17 07:19:18;;;;;;;31.60;25.40;;;;;;;;;;5012429;28;20083;-77
2022/01/17 07:21:43;;;;;;;38.28;25.50;;;;;;;;;;5013784;28;20479;-77
2022/01/17 07:24:09;;;;;;;36.05;23.73;;;;;;;;;;5013705;28;20030;-78
2022/01/17 07:26:34;;;;;;;36.88;24.20;;;;;;;;;;4995176;28;20364;-77
2022/01/17 07:29:00;;;;;;;33.40;23.23;;;;;;;;;;4992173;28;20712;-77
2022/01/17 07:31:25;;;;;;;33.65;23.17;;;;;;;;;;5026700;28;20488;-78
2022/01/17 07:33:51;;;;;;;34.95;23.40;;;;;;;;;;5017312;28;20040;-77
2022/01/17 07:36:19;;;;;;;34.83;22.73;;;;;;;;;;5014053;28;20443;-78
2022/01/17 07:38:45;;;;;;;30.88;21.98;;;;;;;;;;5046326;28;20025;-78
2022/01/17 07:41:11;;;;;;;27.48;21.17;;;;;;;;;;5046860;28;20045;-78
2022/01/17 07:43:38;;;;;;;28.48;20.05;;;;;;;;;;5046710;28;20030;-78
2022/01/17 07:46:06;;;;;;;31.13;20.85;;;;;;;;;;5046683;28;20065;-78
2022/01/17 07:48:57;;;;;;;31.38;21.08;;;;;;;;;;5023671;28;20038;-77
2022/01/17 07:51:24;;;;;;;26.40;20.02;;;;;;;;;;5030192;28;20037;-78
2022/01/17 07:53:49;;;;;;;27.35;19.48;;;;;;;;;;5046428;28;20454;-78
2022/01/17 07:56:15;;;;;;;26.60;19.58;;;;;;;;;;5030219;28;20202;-78
2022/01/17 07:58:41;;;;;;;26.40;19.27;;;;;;;;;;5045814;28;20042;-78
2022/01/17 08:01:07;;;;;;;26.50;18.95;;;;;;;;;;5012364;28;20069;-78
2022/01/17 08:03:33;;;;;;;25.65;17.63;;;;;;;;;;5012971;28;20030;-78
2022/01/17 08:05:59;;;;;;;26.45;18.42;;;;;;;;;;4997632;28;20108;-77
2022/01/17 08:08:24;;;;;;;25.10;17.42;;;;;;;;;;5014648;28;20029;-78
2022/01/17 08:10:50;;;;;;;25.25;18.63;;;;;;;;;;4997018;28;20048;-78
2022/01/17 08:13:16;;;;;;;23.30;17.27;;;;;;;;;;5032980;28;20060;-78
2022/01/17 08:15:42;;;;;;;23.98;17.33;;;;;;;;;;5000971;28;20064;-77
2022/01/17 08:18:07;;;;;;;23.25;17.45;;;;;;;;;;5000395;28;20511;-77
2022/01/17 08:20:33;;;;;;;21.00;16.33;;;;;;;;;;5000885;28;20041;-78
2022/01/17 08:22:58;;;;;;;21.95;16.38;;;;;;;;;;4980593;28;20056;-77
2022/01/17 08:25:24;;;;;;;25.05;17.25;;;;;;;;;;4999136;28;20435;-78
2022/01/17 08:27:49;;;;;;;19.50;16.27;;;;;;;;;;5016552;28;20041;-78
2022/01/17 08:30:15;;;;;;;24.83;17.27;;;;;;;;;;5011754;28;20033;-78
2022/01/17 08:32:40;;;;;;;21.65;16.35;;;;;;;;;;5032766;28;20369;-78
2022/01/17 08:35:06;;;;;;;21.38;16.45;;;;;;;;;;5037417;28;20582;-78
2022/01/17 08:37:32;;;;;;;19.35;15.43;;;;;;;;;;5030189;28;20056;-78
2022/01/17 08:40:00;;;;;;;21.08;16.58;;;;;;;;;;5009528;28;20029;-78
2022/01/17 08:42:27;;;;;;;23.48;16.58;;;;;;;;;;5030053;28;20046;-78
2022/01/17 08:44:54;;;;;;;19.85;15.10;;;;;;;;;;4999654;28;20069;-78
2022/01/17 08:47:20;;;;;;;18.38;14.48;;;;;;;;;;5032407;28;20171;-77
2022/01/17 08:49:48;;;;;;;22.50;15.50;;;;;;;;;;5033309;28;20117;-78
2022/01/17 08:52:15;;;;;;;21.95;15.43;;;;;;;;;;5033018;28;20037;-78
2022/01/17 08:54:40;;;;;;;21.77;14.88;;;;;;;;;;5032328;28;20029;-78
2022/01/17 08:57:06;;;;;;;23.10;14.75;;;;;;;;;;5032440;28;20452;-77
2022/01/17 08:59:32;;;;;;;20.27;13.95;;;;;;;;;;5049319;28;20146;-78
2022/01/17 09:01:57;;;;;;;18.85;14.48;;;;;;;;;;5049029;28;20063;-78
2022/01/17 09:04:23;;;;;;;18.67;14.35;;;;;;;;;;5016568;28;20068;-77
2022/01/17 09:06:48;;;;;;;18.15;13.27;;;;;;;;;;4999979;28;20101;-77
2022/01/17 09:09:14;;;;;;;16.88;14.27;;;;;;;;;;5003347;28;20027;-78
2022/01/17 09:11:40;;;;;;;16.95;13.07;;;;;;;;;;5015952;28;20037;-78
2022/01/17 09:14:06;;;;;;;18.83;12.82;;;;;;;;;;5016058;28;20046;-78
2022/01/17 09:16:31;;;;;;;17.02;13.00;;;;;;;;;;5014907;28;20565;-78
2022/01/17 09:18:57;;;;;;;15.60;12.65;;;;;;;;;;4999420;28;20407;-78
2022/01/17 09:21:22;;;;;;;19.15;13.57;;;;;;;;;;4996049;28;20057;-77
2022/01/17 09:23:49;;;;;;;16.65;12.93;;;;;;;;;;4973557;28;20078;-78
2022/01/17 09:26:15;;;;;;;18.50;14.38;;;;;;;;;;5015180;28;20120;-77
2022/01/17 09:28:41;;;;;;;18.60;13.13;;;;;;;;;;5032163;28;20495;-78
2022/01/17 09:31:06;;;;;;;16.17;12.55;;;;;;;;;;5016058;28;20073;-78
2022/01/17 09:33:34;;;;;;;18.52;13.98;;;;;;;;;;5015689;28;20036;-78
2022/01/17 09:35:59;;;;;;;17.33;13.23;;;;;;;;;;5029043;28;20032;-77
2022/01/17 09:38:25;;;;;;;17.17;13.30;;;;;;;;;;5021069;28;20121;-77
2022/01/17 09:40:50;;;;;;;15.40;13.15;;;;;;;;;;4998148;28;20037;-77
2022/01/17 09:43:16;;;;;;;16.77;12.20;;;;;;;;;;5012884;28;20046;-77
2022/01/17 09:45:41;;;;;;;16.45;11.80;;;;;;;;;;5048024;28;20479;-78
2022/01/17 09:48:08;;;;;;;15.38;12.43;;;;;;;;;;5048424;28;20048;-77
2022/01/17 09:50:45;;;;;;;15.93;11.95;;;;;;;;;;5011988;28;20092;-77
2022/01/17 09:53:11;;;;;;;15.90;12.23;;;;;;;;;;4996585;28;20092;-78
2022/01/17 09:55:36;;;;;;;16.55;12.10;;;;;;;;;;4995861;28;20038;-77
2022/01/17 09:58:05;;;;;;;14.88;11.30;;;;;;;;;;5010027;28;20053;-77
2022/01/17 10:00:33;;;;;;;15.50;12.73;;;;;;;;;;5031670;28;20037;-78
2022/01/17 10:03:00;;;;;;;14.82;11.55;;;;;;;;;;5027699;28;20065;-77
2022/01/17 10:05:26;;;;;;;15.13;11.55;;;;;;;;;;4979629;28;20046;-77
2022/01/17 10:08:00;;;;;;;14.88;11.70;;;;;;;;;;4995003;28;20033;-77
2022/01/17 10:10:33;;;;;;;15.90;12.20;;;;;;;;;;4996507;28;20120;-77
2022/01/17 10:13:09;;;;;;;14.95;11.15;;;;;;;;;;4995662;28;20034;-77
2022/01/17 10:15:46;;;;;;;16.40;12.35;;;;;;;;;;5029709;28;20037;-77
2022/01/17 10:18:37;;;;;;;14.05;12.00;;;;;;;;;;5000962;28;20542;-77
2022/01/17 10:21:17;;;;;;;14.55;10.80;;;;;;;;;;5014847;28;20045;-77
2022/01/17 10:26:57;;;;;;;13.38;10.50;;;;;;;;;;5044023;28;20041;-77
2022/01/17 10:35:12;;;;;;;14.43;10.90;;;;;;;;;;5030165;28;20033;-77
2022/01/17 10:37:38;;;;;;;14.63;11.75;;;;;;;;;;5047274;28;20037;-77
2022/01/17 10:40:10;;;;;;;13.10;9.93;;;;;;;;;;5047241;28;20487;-77
2022/01/17 10:42:42;;;;;;;12.45;10.07;;;;;;;;;;5047468;28;20033;-77
2022/01/17 10:45:11;;;;;;;;;;;;;;;;;;5011383;28;20029;-77
2022/01/17 10:47:39;;;;;;;13.32;10.23;;;;;;;;;;5030788;28;19947;-77
2022/01/17 10:50:09;;;;;;;13.70;10.07;;;;;;;;;;4998945;28;20109;-78
2022/01/17 10:52:37;;;;;;;12.57;9.40;;;;;;;;;;5010262;28;20129;-77
2022/01/17 10:55:18;;;;;;;13.55;10.15;;;;;;;;;;4978913;28;20031;-77
2022/01/17 10:57:45;;;;;;;14.20;10.00;;;;;;;;;;4995373;28;20052;-77
2022/01/17 11:00:22;;;;;;;12.35;9.57;;;;;;;;;;4994806;28;20038;-77
2022/01/17 11:02:59;;;;;;;12.45;9.18;;;;;;;;;;5002791;28;20026;-77
2022/01/17 11:05:27;;;;;;;11.82;9.20;;;;;;;;;;5013857;28;20048;-77
2022/01/17 11:07:53;;;;;;;12.77;8.65;;;;;;;;;;5014418;28;20029;-77
2022/01/17 11:10:24;;;;;;;12.52;9.88;;;;;;;;;;5030445;28;20399;-77
2022/01/17 11:12:52;;;;;;;12.20;9.27;;;;;;;;;;4997802;28;20037;-77
2022/01/17 11:15:18;;;;;;;11.80;8.82;;;;;;;;;;5010463;28;20377;-77
2022/01/17 11:17:51;;;;;;;11.80;8.95;;;;;;;;;;4994478;28;20384;-77
2022/01/17 11:20:17;;;;;;;9.90;7.85;;;;;;;;;;4996218;28;20095;-77
2022/01/17 11:22:44;;;;;;;10.68;8.55;;;;;;;;;;5003907;28;20049;-77
2022/01/17 11:25:12;;;;;;;11.30;9.02;;;;;;;;;;5013230;28;20390;-77
2022/01/17 11:27:37;;;;;;;13.75;8.52;;;;;;;;;;5043890;28;20022;-77
2022/01/17 11:30:03;;;;;;;9.82;8.80;;;;;;;;;;4999790;28;20380;-77
2022/01/17 11:32:29;;;;;;;12.48;8.98;;;;;;;;;;5016221;28;20080;-77
2022/01/17 11:34:57;;;;;;;10.10;8.23;;;;;;;;;;5037924;28;20072;-77
2022/01/17 11:37:23;;;;;;;10.32;8.82;;;;;;;;;;5029879;28;20029;-77
2022/01/17 11:39:56;;;;;;;11.38;8.95;;;;;;;;;;5013554;28;20499;-77
2022/01/17 11:42:30;;;;;;;10.57;8.70;;;;;;;;;;5013892;28;20030;-77
2022/01/17 11:44:56;;;;;;;9.18;6.90;;;;;;;;;;5013848;28;20045;-77
2022/01/17 11:47:50;;;;;;;12.45;9.23;;;;;;;;;;5015372;28;20510;-77
2022/01/17 11:50:35;;;;;;;9.82;7.60;;;;;;;;;;5033648;28;20531;-77
2022/01/17 11:53:21;;;;;;;10.80;7.68;;;;;;;;;;5033653;28;20502;-77
2022/01/17 11:55:47;;;;;;;9.02;7.38;;;;;;;;;;5034508;28;20065;-77
2022/01/17 11:58:21;;;;;;;9.77;7.80;;;;;;;;;;5000959;28;20036;-77
2022/01/17 12:00:47;;;;;;;10.25;7.47;;;;;;;;;;5031658;28;20029;-77
2022/01/17 12:03:17;;;;;;;8.65;6.95;;;;;;;;;;4997303;28;20036;-77
2022/01/17 12:05:43;;;;;;;11.85;8.93;;;;;;;;;;4981567;28;20034;-77
2022/01/17 12:08:09;;;;;;;10.43;8.50;;;;;;;;;;4999465;28;20044;-77
2022/01/17 12:11:06;;;;;;;14.73;8.38;;;;;;;;;;5001271;28;20462;-77
2022/01/17 12:13:43;;;;;;;14.10;9.30;;;;;;;;;;5027534;28;20407;-77
2022/01/17 12:16:36;;;;;;;13.73;8.73;;;;;;;;;;5014744;28;20034;-77
2022/01/17 12:19:03;;;;;;;10.82;9.13;;;;;;;;;;5047527;28;20064;-77
2022/01/17 12:21:32;;;;;;;12.30;8.70;;;;;;;;;;5033967;28;20029;-77
2022/01/17 12:24:16;;;;;;;13.60;9.52;;;;;;;;;;5033130;28;20029;-77
2022/01/17 12:26:57;;;;;;;14.20;9.32;;;;;;;;;;5032667;28;20458;-77
2022/01/17 12:29:51;;;;;;;11.70;8.82;;;;;;;;;;5034553;28;20033;-77
2022/01/17 12:32:26;;;;;;;12.45;8.13;;;;;;;;;;5016175;28;20051;-77
2022/01/17 12:35:12;;;;;;;15.07;9.30;;;;;;;;;;5033869;28;20547;-77
2022/01/17 12:38:04;;;;;;;14.38;9.35;;;;;;;;;;5002783;28;20078;-77
2022/01/17 12:40:32;;;;;;;12.77;8.23;;;;;;;;;;5033341;28;20036;-77
2022/01/17 12:43:07;;;;;;;11.32;8.25;;;;;;;;;;4983783;28;20212;-78
2022/01/17 12:45:40;;;;;;;12.00;8.43;;;;;;;;;;5033199;28;20022;-77
2022/01/17 12:48:10;;;;;;;10.75;8.52;;;;;;;;;;5016229;28;20041;-77
2022/01/17 12:50:40;;;;;;;9.63;7.40;;;;;;;;;;5016525;28;20174;-77
2022/01/17 12:53:06;;;;;;;11.95;7.95;;;;;;;;;;4999674;28;20484;-77
2022/01/17 12:55:35;;;;;;;9.82;7.18;;;;;;;;;;4997900;28;20500;-77
2022/01/17 12:58:00;;;;;;;11.55;7.03;;;;;;;;;;5032230;28;20033;-77
2022/01/17 13:00:27;;;;;;;11.10;7.38;;;;;;;;;;5032796;28;20395;-77
2022/01/17 13:02:53;;;;;;;13.25;7.80;;;;;;;;;;5021082;28;20042;-77
2022/01/17 13:05:26;;;;;;;11.68;7.68;;;;;;;;;;5016197;28;20033;-77
2022/01/17 13:07:52;;;;;;;13.52;8.07;;;;;;;;;;5023579;28;20107;-77
2022/01/17 13:10:17;;;;;;;16.95;9.93;;;;;;;;;;5032709;28;20368;-77
2022/01/17 13:12:43;;;;;;;15.00;9.07;;;;;;;;;;5004620;28;20065;-77
2022/01/17 13:15:09;;;;;;;17.58;9.15;;;;;;;;;;4969721;28;20061;-77
2022/01/17 13:17:35;;;;;;;15.32;8.82;;;;;;;;;;5015239;28;20076;-77
2022/01/17 13:20:02;;;;;;;17.17;9.35;;;;;;;;;;5032571;28;20037;-78
2022/01/17 13:22:36;;;;;;;14.45;9.27;;;;;;;;;;5015187;28;20029;-75
2022/01/17 13:25:03;;;;;;;15.38;8.48;;;;;;;;;;5036908;28;20076;-75
2022/01/17 13:27:32;;;;;;;14.73;8.07;;;;;;;;;;5048300;28;20108;-78
2022/01/17 13:29:57;;;;;;;12.90;7.40;;;;;;;;;;5015812;28;20031;-78
2022/01/17 13:32:23;;;;;;;11.18;7.15;;;;;;;;;;5014965;28;20551;-78
2022/01/17 13:34:48;;;;;;;14.65;8.35;;;;;;;;;;5013532;28;20076;-77
2022/01/17 13:37:15;;;;;;;12.07;7.50;;;;;;;;;;5015218;28;20128;-78
2022/01/17 13:39:40;;;;;;;11.95;6.78;;;;;;;;;;5053584;28;20026;-76
2022/01/17 13:42:07;;;;;;;11.23;7.22;;;;;;;;;;5011976;28;20042;-76
2022/01/17 13:44:35;;;;;;;14.00;8.40;;;;;;;;;;5046355;28;20040;-76
2022/01/17 13:47:05;;;;;;;21.77;14.45;;;;;;;;;;5031599;28;20139;-76
2022/01/17 13:49:32;;;;;;;22.67;14.10;;;;;;;;;;5031344;28;20037;-75
2022/01/17 13:51:58;;;;;;;20.60;12.75;;;;;;;;;;5048174;28;20025;-76
2022/01/17 13:54:25;;;;;;;24.35;12.85;;;;;;;;;;5031312;28;20029;-76
2022/01/17 13:56:50;;;;;;;17.02;11.38;;;;;;;;;;5015021;28;20041;-76
2022/01/17 13:59:17;;;;;;;20.42;11.73;;;;;;;;;;5013647;28;20041;-76
2022/01/17 14:01:42;;;;;;;15.80;10.02;;;;;;;;;;5011880;28;20469;-76
2022/01/17 14:04:17;;;;;;;15.88;10.52;;;;;;;;;;5047582;28;20025;-76
2022/01/17 14:06:43;;;;;;;20.10;9.23;;;;;;;;;;5064376;28;20033;-76
2022/01/17 14:09:08;;;;;;;15.75;9.25;;;;;;;;;;5046634;28;20553;-76
2022/01/17 14:11:35;;;;;;;13.85;8.40;;;;;;;;;;5030984;28;20037;-76
2022/01/17 14:14:00;;;;;;;14.55;8.82;;;;;;;;;;5013974;28;20037;-76
2022/01/17 14:16:36;;;;;;;13.68;8.25;;;;;;;;;;5042689;28;20095;-75
2022/01/17 14:19:07;;;;;;;13.45;7.88;;;;;;;;;;5026575;28;20096;-76
2022/01/17 14:21:37;;;;;;;20.35;9.50;;;;;;;;;;5023549;28;20041;-76
2022/01/17 14:24:20;;;;;;;17.45;8.68;;;;;;;;;;5031089;28;20064;-76
2022/01/17 14:26:55;;;;;;;24.33;8.40;;;;;;;;;;5030739;28;20042;-76
2022/01/17 14:29:23;;;;;;;19.92;8.20;;;;;;;;;;5014592;28;20025;-76
2022/01/17 14:31:50;;;;;;;16.67;8.77;;;;;;;;;;4981670;28;20510;-76
2022/01/17 14:34:17;;;;;;;16.80;9.75;;;;;;;;;;4994851;28;20117;-76
2022/01/17 14:36:44;;;;;;;18.63;8.90;;;;;;;;;;4996758;28;20105;-76
2022/01/17 14:39:10;;;;;;;17.38;8.10;;;;;;;;;;5016249;28;20021;-76
2022/01/17 14:41:37;;;;;;;15.25;8.15;;;;;;;;;;5004720;28;20045;-76
2022/01/17 14:44:12;;;;;;;49.92;28.83;;;;;;;;;;4995214;28;20483;-75
2022/01/17 14:46:44;;;;;;;58.83;32.08;;;;;;;;;;4978639;28;20045;-76
2022/01/17 14:49:19;;;;;;;;;;;;;;;;;;5011487;28;20038;-75
2022/01/17 14:51:46;;;;;;;56.10;30.38;;;;;;;;;;5011682;28;19909;-76
2022/01/17 14:54:18;;;;;;;53.92;27.20;;;;;;;;;;5021615;28;20045;-76
2022/01/17 15:04:35;;;;;;;45.60;21.20;;;;;;;;;;5014378;28;20095;-76
2022/01/17 15:07:00;;;;;;;42.53;21.30;;;;;;;;;;5039404;28;20113;-76
2022/01/17 15:09:26;;;;;;;41.88;19.35;;;;;;;;;;5030132;28;20041;-76
2022/01/17 15:11:51;;;;;;;41.78;21.23;;;;;;;;;;5013813;28;20438;-76
2022/01/17 15:14:17;;;;;;;39.35;19.80;;;;;;;;;;5013901;28;20407;-75